createdAt,value
2022-08-25T00:02:03.016Z,99270.09
2022-08-25T00:04:31.388Z,99269.41
2022-08-25T00:07:03.520Z,99268.81
2022-08-25T00:09:33.238Z,99264.34
2022-08-25T00:12:01.860Z,99263.56
2022-08-25T00:14:32.013Z,99260.63
2022-08-25T00:17:07.606Z,99258.06
2022-08-25T00:19:40.259Z,99261.69
2022-08-25T00:22:09.528Z,99259.25
2022-08-25T00:24:37.697Z,99264.91
2022-08-25T00:27:06.420Z,99270.09
2022-08-25T00:29:34.724Z,99271.34
2022-08-25T00:32:03.119Z,99275.75
2022-08-25T00:34:34.275Z,99275.00
2022-08-25T00:37:03.178Z,99282.69
2022-08-25T00:39:32.492Z,99282.66
2022-08-25T00:42:00.794Z,99278.66
2022-08-25T00:44:31.542Z,99285.72
2022-08-25T00:47:01.712Z,99287.66
2022-08-25T00:49:33.320Z,99280.38
2022-08-25T00:52:04.642Z,99279.16
2022-08-25T00:54:39.060Z,99274.88
2022-08-25T00:57:09.712Z,99273.97
2022-08-25T00:59:37.949Z,99272.34
2022-08-25T01:02:10.264Z,99275.88
2022-08-25T01:04:48.755Z,99270.34
2022-08-25T01:07:18.862Z,99271.22
2022-08-25T01:09:50.971Z,99278.66
2022-08-25T01:12:18.914Z,99272.78
2022-08-25T01:14:47.665Z,99263.16
2022-08-25T01:17:16.190Z,99265.66
2022-08-25T01:19:44.194Z,99261.94
2022-08-25T01:22:13.472Z,99261.75
2022-08-25T01:24:46.515Z,99261.00
2022-08-25T01:27:14.574Z,99262.91
2022-08-25T01:29:42.640Z,99258.97
2022-08-25T01:32:13.236Z,99261.44
2022-08-25T01:34:41.950Z,99254.06
2022-08-25T01:37:13.464Z,99254.41
2022-08-25T01:39:44.123Z,99260.00
2022-08-25T01:42:20.475Z,99250.78
2022-08-25T01:44:49.793Z,99251.88
2022-08-25T01:47:17.769Z,99252.50
2022-08-25T01:49:45.853Z,99251.47
2022-08-25T01:52:21.297Z,99257.75
2022-08-25T01:54:51.030Z,99253.88
2022-08-25T01:57:19.109Z,99251.41
2022-08-25T01:59:47.600Z,99242.78
2022-08-25T02:02:15.595Z,99249.47
2022-08-25T02:04:47.804Z,99231.53
2022-08-25T02:07:16.914Z,99232.91
2022-08-25T02:09:45.271Z,99234.19
2022-08-25T02:12:15.512Z,99237.00
2022-08-25T02:14:43.638Z,99238.66
2022-08-25T02:17:11.568Z,99240.69
2022-08-25T02:19:39.509Z,99240.69
2022-08-25T02:22:07.670Z,99235.19
2022-08-25T02:24:35.990Z,99232.28
2022-08-25T02:27:04.151Z,99243.38
2022-08-25T02:29:33.983Z,99236.94
2022-08-25T02:32:02.571Z,99235.22
2022-08-25T02:34:30.571Z,99234.94
2022-08-25T02:36:58.928Z,99231.44
2022-08-25T02:39:26.866Z,99233.84
2022-08-25T02:41:54.896Z,99239.19
2022-08-25T02:44:22.987Z,99237.31
2022-08-25T02:46:52.442Z,99227.28
2022-08-25T02:49:20.408Z,99232.16
2022-08-25T02:51:48.353Z,99225.38
2022-08-25T02:54:16.362Z,99227.78
2022-08-25T02:56:44.346Z,99230.44
2022-08-25T02:59:12.881Z,99232.00
2022-08-25T03:01:40.932Z,99225.75
2022-08-25T03:04:10.184Z,99225.75
2022-08-25T03:06:38.283Z,99226.81
2022-08-25T03:09:06.358Z,99225.59
2022-08-25T03:11:34.518Z,99225.56
2022-08-25T03:14:02.448Z,99227.31
2022-08-25T03:16:30.412Z,99230.28
2022-08-25T03:18:59.450Z,99231.41
2022-08-25T03:21:30.969Z,99226.66
2022-08-25T03:24:00.041Z,99230.59
2022-08-25T03:26:45.622Z,99232.50
2022-08-25T03:29:13.980Z,99227.91
2022-08-25T03:31:43.827Z,99219.16
2022-08-25T03:34:11.796Z,99217.91
2022-08-25T03:36:41.333Z,99215.72
2022-08-25T03:39:09.580Z,99207.03
2022-08-25T03:41:37.969Z,99206.88
2022-08-25T03:44:08.053Z,99206.28
2022-08-25T03:46:40.090Z,99210.69
2022-08-25T03:49:10.198Z,99198.56
2022-08-25T03:51:43.480Z,99194.72
2022-08-25T03:54:12.552Z,99197.38
2022-08-25T03:56:40.935Z,99198.16
2022-08-25T03:59:09.937Z,99196.63
2022-08-25T04:01:38.129Z,99199.56
2022-08-25T04:04:07.650Z,99199.88
2022-08-25T04:06:35.996Z,99205.84
2022-08-25T04:09:05.378Z,99211.03
2022-08-25T04:11:33.388Z,99213.81
2022-08-25T04:14:02.421Z,99215.03
2022-08-25T04:16:33.118Z,99209.19
2022-08-25T04:19:03.131Z,99205.22
2022-08-25T04:21:31.820Z,99210.72
2022-08-25T04:23:59.752Z,99203.03
2022-08-25T04:26:31.586Z,99214.50
2022-08-25T04:29:01.107Z,99218.22
2022-08-25T04:31:30.192Z,99214.63
2022-08-25T04:33:58.747Z,99225.66
2022-08-25T04:36:26.636Z,99218.91
2022-08-25T04:38:54.528Z,99224.06
2022-08-25T04:41:25.455Z,99219.78
2022-08-25T04:43:58.028Z,99214.38
2022-08-25T04:46:28.036Z,99210.63
2022-08-25T04:48:57.705Z,99215.91
2022-08-25T04:51:27.736Z,99209.78
2022-08-25T04:53:55.722Z,99207.63
2022-08-25T04:56:25.293Z,99210.22
2022-08-25T04:58:56.128Z,99207.69
2022-08-25T05:01:26.468Z,99202.59
2022-08-25T05:03:56.894Z,99211.22
2022-08-25T05:06:25.079Z,99207.34
2022-08-25T05:08:53.667Z,99206.41
2022-08-25T05:11:23.647Z,99203.41
2022-08-25T05:13:55.252Z,99197.59
2022-08-25T05:16:24.925Z,99197.22
2022-08-25T05:18:53.497Z,99200.91
2022-08-25T05:21:24.558Z,99195.66
2022-08-25T05:23:56.734Z,99209.16
2022-08-25T05:26:26.264Z,99204.63
2022-08-25T05:28:56.388Z,99214.38
2022-08-25T05:31:26.499Z,99213.22
2022-08-25T05:33:56.326Z,99213.94
2022-08-25T05:36:26.348Z,99210.63
2022-08-25T05:38:54.669Z,99219.34
2022-08-25T05:41:28.423Z,99212.66
2022-08-25T05:43:57.926Z,99210.97
2022-08-25T05:46:26.228Z,99209.59
2022-08-25T05:48:55.201Z,99222.91
2022-08-25T05:51:23.107Z,99217.25
2022-08-25T05:53:52.259Z,99223.25
2022-08-25T05:56:20.781Z,99222.47
2022-08-25T05:58:48.785Z,99218.41
2022-08-25T06:01:43.516Z,99216.97
2022-08-25T06:04:13.854Z,99221.06
2022-08-25T06:06:43.746Z,99219.47
2022-08-25T06:09:12.214Z,99217.06
2022-08-25T06:11:41.333Z,99219.91
2022-08-25T06:14:10.431Z,99217.00
2022-08-25T06:16:40.235Z,99211.50
2022-08-25T06:19:10.021Z,99211.59
2022-08-25T06:21:39.473Z,99210.50
2022-08-25T06:24:10.038Z,99208.41
2022-08-25T06:26:41.402Z,99204.94
2022-08-25T06:29:09.291Z,99201.63
2022-08-25T06:31:37.397Z,99201.56
2022-08-25T06:34:07.163Z,99191.22
2022-08-25T06:36:35.465Z,99183.00
2022-08-25T06:39:03.377Z,99193.34
2022-08-25T06:41:37.104Z,99190.38
2022-08-25T06:44:05.721Z,99196.41
2022-08-25T06:46:36.297Z,99192.53
2022-08-25T06:49:06.942Z,99193.97
2022-08-25T06:51:36.771Z,99199.84
2022-08-25T06:54:05.716Z,99192.97
2022-08-25T06:56:34.128Z,99190.19
2022-08-25T06:59:02.535Z,99187.16
2022-08-25T07:01:31.818Z,99189.22
2022-08-25T07:04:02.060Z,99187.34
2022-08-25T07:06:35.410Z,99192.34
2022-08-25T07:09:05.944Z,99202.72
2022-08-25T07:11:34.427Z,99204.50
2022-08-25T07:14:03.205Z,99192.22
2022-08-25T07:16:32.629Z,99195.41
2022-08-25T07:19:01.606Z,99182.53
2022-08-25T07:21:35.793Z,99185.94
2022-08-25T07:24:06.662Z,99191.41
2022-08-25T07:26:38.564Z,99196.16
2022-08-25T07:29:14.001Z,99195.84
2022-08-25T07:31:41.949Z,99189.19
2022-08-25T07:34:28.578Z,99194.38
2022-08-25T07:36:58.615Z,99193.34
2022-08-25T07:39:29.085Z,99190.50
2022-08-25T07:41:57.729Z,99186.31
2022-08-25T07:44:27.855Z,99184.13
2022-08-25T07:46:55.973Z,99184.31
2022-08-25T07:49:26.129Z,99185.41
2022-08-25T07:52:33.499Z,99194.34
2022-08-25T07:55:01.809Z,99193.91
2022-08-25T07:57:29.862Z,99182.34
2022-08-25T07:59:58.749Z,99188.44
2022-08-25T08:02:27.440Z,99187.63
2022-08-25T08:04:55.335Z,99192.88
2022-08-25T08:07:43.262Z,99194.84
2022-08-25T08:13:07.144Z,99202.34
2022-08-25T08:15:36.044Z,99194.16
2022-08-25T08:18:07.146Z,99197.41
2022-08-25T08:20:42.650Z,99200.56
2022-08-25T08:23:11.577Z,99193.97
2022-08-25T08:25:40.836Z,99197.19
2022-08-25T08:28:08.962Z,99193.47
2022-08-25T08:30:38.917Z,99195.66
2022-08-25T08:33:12.059Z,99193.81
2022-08-25T08:35:40.537Z,99200.16
2022-08-25T08:38:14.552Z,99192.28
2022-08-25T08:41:15.299Z,99202.69
2022-08-25T08:43:45.655Z,99194.22
2022-08-25T08:46:13.698Z,99189.94
2022-08-25T08:48:56.559Z,99192.28
2022-08-25T08:51:32.921Z,99183.63
2022-08-25T08:54:07.304Z,99176.81
2022-08-25T08:56:48.772Z,99180.03
2022-08-25T08:59:20.079Z,99169.66
2022-08-25T09:01:54.427Z,99173.00
2022-08-25T09:04:31.225Z,99171.25
2022-08-25T09:07:02.341Z,99168.75
2022-08-25T09:09:35.624Z,99171.81
2022-08-25T09:12:14.643Z,99171.91
2022-08-25T09:14:58.363Z,99167.72
2022-08-25T09:17:41.612Z,99164.84
2022-08-25T09:20:19.813Z,99163.63
2022-08-25T09:22:56.375Z,99159.28
2022-08-25T09:25:52.603Z,99157.38
2022-08-25T09:28:31.173Z,99150.75
2022-08-25T09:31:01.229Z,99146.81
2022-08-25T09:33:30.071Z,99140.06
2022-08-25T09:36:01.900Z,99143.34
2022-08-25T09:38:34.810Z,99143.94
2022-08-25T09:41:03.315Z,99131.66
2022-08-25T09:43:35.427Z,99137.75
2022-08-25T09:46:10.537Z,99134.78
2022-08-25T09:48:45.508Z,99136.25
2022-08-25T09:51:24.213Z,99112.81
2022-08-25T09:53:56.732Z,99114.47
2022-08-25T09:56:26.735Z,99106.66
2022-08-25T09:59:02.425Z,99094.44
2022-08-25T10:01:34.546Z,99092.31
2022-08-25T10:04:05.882Z,99085.38
2022-08-25T10:06:45.490Z,99084.94
2022-08-25T10:09:26.607Z,99078.66
2022-08-25T10:11:57.439Z,99083.75
2022-08-25T10:14:35.140Z,99082.66
2022-08-25T10:17:27.574Z,99076.66
2022-08-25T10:20:13.005Z,99069.44
2022-08-25T10:22:42.683Z,99061.25
2022-08-25T10:25:14.034Z,99046.84
2022-08-25T10:27:52.692Z,99055.84
2022-08-25T10:30:31.311Z,99050.56
2022-08-25T10:33:13.535Z,99055.00
2022-08-25T10:36:01.722Z,99045.69
2022-08-25T10:38:39.209Z,99032.56
2022-08-25T10:41:35.897Z,99027.22
2022-08-25T10:44:28.676Z,99017.66
2022-08-25T10:47:13.262Z,99014.59
2022-08-25T10:49:47.332Z,99017.25
2022-08-25T10:52:27.934Z,99004.66
2022-08-25T10:55:02.437Z,98999.34
2022-08-25T10:57:35.798Z,99004.69
2022-08-25T11:00:09.315Z,99003.78
2022-08-25T11:03:12.543Z,99000.47
2022-08-25T11:05:43.914Z,99007.41
2022-08-25T11:08:18.136Z,98996.91
2022-08-25T11:10:52.289Z,98991.41
2022-08-25T11:13:28.007Z,98985.19
2022-08-25T11:16:18.723Z,98986.25
2022-08-25T11:18:55.234Z,98982.41
2022-08-25T11:21:30.036Z,98985.72
2022-08-25T11:24:05.868Z,98977.31
2022-08-25T11:26:40.631Z,98974.34
2022-08-25T11:29:15.965Z,98969.47
2022-08-25T11:31:52.713Z,98975.88
2022-08-25T11:34:23.498Z,98975.13
2022-08-25T11:36:55.113Z,98966.09
2022-08-25T11:39:40.432Z,98977.78
2022-08-25T11:42:19.245Z,98971.06
2022-08-25T11:44:56.165Z,98967.94
2022-08-25T11:47:41.196Z,98965.78
2022-08-25T11:50:29.856Z,98964.38
2022-08-25T11:53:00.860Z,98959.72
2022-08-25T11:55:47.484Z,98964.38
2022-08-25T11:58:24.841Z,98953.88
2022-08-25T12:00:54.350Z,98966.75
2022-08-25T12:03:51.036Z,98966.56
2022-08-25T12:06:29.428Z,98959.69
2022-08-25T12:09:22.231Z,98955.25
2022-08-25T12:11:54.627Z,98950.38
2022-08-25T12:14:48.066Z,98948.38
2022-08-25T12:17:26.177Z,98954.31
2022-08-25T12:20:01.101Z,98939.56
2022-08-25T12:22:58.564Z,98941.13
2022-08-25T12:25:36.371Z,98937.50
2022-08-25T12:28:15.399Z,98935.81
2022-08-25T12:30:51.519Z,98935.97
2022-08-25T12:33:33.887Z,98938.78
2022-08-25T12:36:08.470Z,98931.59
2022-08-25T12:38:49.537Z,98933.25
2022-08-25T12:41:24.265Z,98934.53
2022-08-25T12:43:54.467Z,98923.88
2022-08-25T12:46:38.541Z,98934.00
2022-08-25T12:49:14.263Z,98922.94
2022-08-25T12:51:54.391Z,98932.66
2022-08-25T12:54:40.319Z,98929.16
2022-08-25T12:57:29.570Z,98923.38
2022-08-25T13:00:00.666Z,98926.56
2022-08-25T13:02:56.301Z,98926.81
2022-08-25T13:05:49.759Z,98918.97
2022-08-25T13:08:47.360Z,98917.66
2022-08-25T13:11:22.526Z,98914.16
2022-08-25T13:13:56.302Z,98916.25
2022-08-25T13:16:29.296Z,98919.59
2022-08-25T13:19:01.511Z,98910.13
2022-08-25T13:21:31.740Z,98911.06
2022-08-25T13:24:05.290Z,98904.91
2022-08-25T13:26:48.139Z,98899.78
2022-08-25T13:29:20.094Z,98900.00
2022-08-25T13:31:54.848Z,98894.22
2022-08-25T13:34:34.324Z,98880.47
2022-08-25T13:37:24.971Z,98887.63
2022-08-25T13:40:07.790Z,98883.28
2022-08-25T13:42:42.481Z,98886.97
2022-08-25T13:45:16.457Z,98876.81
2022-08-25T13:47:46.133Z,98875.41
2022-08-25T13:50:20.195Z,98876.50
2022-08-25T13:52:51.145Z,98869.66
2022-08-25T13:55:27.596Z,98867.22
2022-08-25T13:58:00.137Z,98866.13
2022-08-25T14:00:32.721Z,98866.75
2022-08-25T14:03:02.656Z,98858.31
2022-08-25T14:05:40.431Z,98860.06
2022-08-25T14:08:31.782Z,98850.63
2022-08-25T14:11:15.079Z,98855.19
2022-08-25T14:13:45.583Z,98852.72
2022-08-25T14:16:19.387Z,98859.47
2022-08-25T14:18:49.401Z,98860.19
2022-08-25T14:21:17.539Z,98861.22
2022-08-25T14:23:47.210Z,98864.47
2022-08-25T14:26:15.279Z,98849.81
2022-08-25T14:28:46.392Z,98859.66
2022-08-25T14:31:17.365Z,98846.53
2022-08-25T14:33:55.290Z,98839.78
2022-08-25T14:36:23.311Z,98839.19
2022-08-25T14:38:54.895Z,98846.16
2022-08-25T14:41:24.716Z,98834.50
2022-08-25T14:43:54.481Z,98840.63
2022-08-25T14:46:25.686Z,98828.69
2022-08-25T14:48:57.530Z,98832.38
2022-08-25T14:51:26.830Z,98839.56
2022-08-25T14:53:58.673Z,98843.13
2022-08-25T14:56:27.694Z,98835.66
2022-08-25T14:58:59.570Z,98830.28
2022-08-25T15:01:30.134Z,98823.72
2022-08-25T15:04:03.155Z,98821.59
2022-08-25T15:06:31.606Z,98828.31
2022-08-25T15:09:13.683Z,98821.50
2022-08-25T15:11:43.829Z,98822.75
2022-08-25T15:14:17.498Z,98820.00
2022-08-25T15:16:49.312Z,98826.78
2022-08-25T15:19:19.451Z,98819.53
2022-08-25T15:21:49.587Z,98817.94
2022-08-25T15:24:19.536Z,98818.47
2022-08-25T15:29:27.972Z,98810.88
2022-08-25T15:31:56.109Z,98811.75
2022-08-25T15:34:24.155Z,98812.09
2022-08-25T15:36:52.318Z,98800.34
2022-08-25T15:39:20.520Z,98807.75
2022-08-25T15:41:52.213Z,98803.44
2022-08-25T15:44:22.674Z,98804.34
2022-08-25T15:46:54.666Z,98806.22
2022-08-25T15:49:24.366Z,98806.22
2022-08-25T15:51:54.376Z,98804.63
2022-08-25T15:54:23.848Z,98801.69
2022-08-25T15:56:55.279Z,98796.84
2022-08-25T15:59:23.244Z,98798.66
2022-08-25T16:01:54.643Z,98795.66
2022-08-25T16:04:23.417Z,98793.16
2022-08-25T16:06:51.882Z,98793.69
2022-08-25T16:09:22.895Z,98795.47
2022-08-25T16:11:56.157Z,98779.66
2022-08-25T16:14:26.210Z,98790.78
2022-08-25T16:16:58.332Z,98778.19
2022-08-25T16:19:27.936Z,98776.75
2022-08-25T16:21:55.833Z,98774.78
2022-08-25T16:24:23.725Z,98774.72
2022-08-25T16:26:52.348Z,98777.28
2022-08-25T16:29:23.756Z,98768.28
2022-08-25T16:31:51.605Z,98769.94
2022-08-25T16:34:28.585Z,98772.38
2022-08-25T16:36:58.801Z,98763.50
2022-08-25T16:39:27.184Z,98768.41
2022-08-25T16:41:54.995Z,98770.38
2022-08-25T16:44:24.362Z,98761.56
2022-08-25T16:46:55.284Z,98760.16
2022-08-25T16:49:25.510Z,98759.44
2022-08-25T16:51:56.646Z,98759.31
2022-08-25T16:54:43.901Z,98762.38
2022-08-25T16:57:11.919Z,98761.09
2022-08-25T16:59:39.775Z,98760.09
2022-08-25T17:02:08.439Z,98756.03
2022-08-25T17:04:37.636Z,98750.19
2022-08-25T17:07:06.188Z,98754.84
2022-08-25T17:09:36.110Z,98750.66
2022-08-25T17:12:05.540Z,98756.84
2022-08-25T17:14:33.549Z,98757.16
2022-08-25T17:17:01.467Z,98746.44
2022-08-25T17:19:29.290Z,98748.34
2022-08-25T17:21:58.847Z,98749.34
2022-08-25T17:24:29.398Z,98751.50
2022-08-25T17:27:01.412Z,98757.28
2022-08-25T17:29:30.053Z,98759.94
2022-08-25T17:31:58.533Z,98744.19
2022-08-25T17:34:27.568Z,98747.28
2022-08-25T17:36:56.000Z,98741.13
2022-08-25T17:39:26.572Z,98752.84
2022-08-25T17:41:54.693Z,98752.84
2022-08-25T17:44:22.661Z,98745.75
2022-08-25T17:46:50.779Z,98747.47
2022-08-25T17:49:19.852Z,98751.91
2022-08-25T17:51:47.724Z,98749.53
2022-08-25T17:54:15.848Z,98745.75
2022-08-25T17:56:45.310Z,98754.88
2022-08-25T17:59:13.918Z,98758.78
2022-08-25T18:01:42.189Z,98753.50
2022-08-25T18:04:17.005Z,98756.78
2022-08-25T18:06:46.866Z,98764.66
2022-08-25T18:09:14.830Z,98762.16
2022-08-25T18:11:42.943Z,98760.88
2022-08-25T18:14:13.833Z,98766.09
2022-08-25T18:16:42.246Z,98765.38
2022-08-25T18:19:10.791Z,98758.41
2022-08-25T18:21:39.124Z,98763.63
2022-08-25T18:24:08.374Z,98772.75
2022-08-25T18:26:36.344Z,98769.09
2022-08-25T18:29:04.316Z,98769.72
2022-08-25T18:31:33.969Z,98767.06
2022-08-25T18:34:05.011Z,98777.94
2022-08-25T18:36:33.614Z,98769.25
2022-08-25T18:39:34.844Z,98771.06
2022-08-25T18:42:03.891Z,98780.13
2022-08-25T18:44:33.417Z,98778.63
2022-08-25T18:47:07.434Z,98766.78
2022-08-25T18:49:37.079Z,98774.13
2022-08-25T18:52:05.957Z,98779.03
2022-08-25T18:54:36.082Z,98781.19
2022-08-25T18:57:04.590Z,98798.06
2022-08-25T18:59:36.139Z,98797.59
2022-08-25T19:02:05.674Z,98798.59
2022-08-25T19:04:33.939Z,98801.00
2022-08-25T19:07:02.107Z,98796.38
2022-08-25T19:09:32.182Z,98795.53
2022-08-25T19:12:01.428Z,98795.47
2022-08-25T19:14:29.648Z,98799.78
2022-08-25T19:16:58.767Z,98803.47
2022-08-25T19:19:29.053Z,98798.41
2022-08-25T19:21:58.149Z,98809.78
2022-08-25T19:24:28.277Z,98805.59
2022-08-25T19:26:56.873Z,98806.91
2022-08-25T19:29:26.245Z,98795.59
2022-08-25T19:31:54.282Z,98805.63
2022-08-25T19:34:28.013Z,98801.47
2022-08-25T19:37:01.780Z,98800.69
2022-08-25T19:39:33.190Z,98796.13
2022-08-25T19:42:01.247Z,98795.28
2022-08-25T19:44:31.471Z,98796.19
2022-08-25T19:46:59.751Z,98798.69
2022-08-25T19:49:34.485Z,98796.91
2022-08-25T19:52:10.422Z,98801.50
2022-08-25T19:54:44.149Z,98806.19
2022-08-25T19:57:27.803Z,98800.53
2022-08-25T19:59:56.988Z,98796.84
2022-08-25T20:02:29.573Z,98798.41
2022-08-25T20:05:00.353Z,98796.72
2022-08-25T20:07:31.730Z,98799.81
2022-08-25T20:10:00.521Z,98801.88
2022-08-25T20:12:29.504Z,98797.44
2022-08-25T20:14:58.378Z,98815.59
2022-08-25T20:17:28.520Z,98803.06
2022-08-25T20:20:00.023Z,98807.97
2022-08-25T20:22:32.522Z,98808.38
2022-08-25T20:25:02.352Z,98812.19
2022-08-25T20:27:34.809Z,98814.72
2022-08-25T20:30:06.236Z,98814.81
2022-08-25T20:32:35.690Z,98806.47
2022-08-25T20:35:08.919Z,98804.75
2022-08-25T20:37:38.884Z,98813.28
2022-08-25T20:40:09.222Z,98815.03
2022-08-25T20:42:40.525Z,98812.06
2022-08-25T20:45:10.384Z,98806.88
2022-08-25T20:47:39.037Z,98809.16
2022-08-25T20:50:08.667Z,98814.03
2022-08-25T20:52:42.407Z,98807.31
2022-08-25T20:55:12.736Z,98809.75
2022-08-25T20:57:40.909Z,98810.97
2022-08-25T21:00:10.736Z,98809.22
2022-08-25T21:02:38.641Z,98806.53
2022-08-25T21:05:08.779Z,98808.19
2022-08-25T21:07:37.979Z,98812.13
2022-08-25T21:10:10.514Z,98804.31
2022-08-25T21:12:42.557Z,98810.53
2022-08-25T21:15:11.881Z,98821.06
2022-08-25T21:17:40.497Z,98811.19
2022-08-25T21:20:10.120Z,98806.41
2022-08-25T21:22:40.706Z,98810.78
2022-08-25T21:25:10.177Z,98813.91
2022-08-25T21:27:38.013Z,98819.88
2022-08-25T21:30:07.635Z,98817.03
2022-08-25T21:32:35.514Z,98823.25
2022-08-25T21:35:04.040Z,98820.66
2022-08-25T21:37:35.861Z,98814.44
2022-08-25T21:40:07.003Z,98814.47
2022-08-25T21:42:36.778Z,98812.41
2022-08-25T21:45:05.665Z,98810.06
2022-08-25T21:47:42.269Z,98814.47
2022-08-25T21:50:11.823Z,98816.28
2022-08-25T21:52:39.916Z,98817.28
2022-08-25T21:55:13.639Z,98812.91
2022-08-25T21:57:44.140Z,98823.25
2022-08-25T22:00:14.329Z,98816.03
2022-08-25T22:02:45.841Z,98813.19
2022-08-25T22:05:13.861Z,98817.81
2022-08-25T22:07:44.074Z,98815.25
2022-08-25T22:12:46.887Z,98814.47
2022-08-25T22:15:17.852Z,98820.38
2022-08-25T22:17:46.216Z,98821.97
2022-08-25T22:20:17.159Z,98821.44
2022-08-25T22:22:44.992Z,98813.66
2022-08-25T22:25:14.724Z,98815.75
2022-08-25T22:27:42.763Z,98807.47
2022-08-25T22:30:11.941Z,98815.19
2022-08-25T22:32:40.017Z,98813.38
2022-08-25T22:35:09.551Z,98810.06
2022-08-25T22:37:37.692Z,98807.72
2022-08-25T22:40:06.413Z,98812.75
2022-08-25T22:42:35.897Z,98810.13
2022-08-25T22:45:03.805Z,98809.66
2022-08-25T22:47:31.890Z,98810.91
2022-08-25T22:50:00.223Z,98804.75
2022-08-25T22:52:33.682Z,98810.22
2022-08-25T22:55:01.842Z,98817.44
2022-08-25T22:57:29.868Z,98816.31
2022-08-25T22:59:59.580Z,98814.84
2022-08-25T23:02:30.358Z,98808.34
2022-08-25T23:05:00.813Z,98809.84
2022-08-25T23:07:28.826Z,98806.69
2022-08-25T23:09:56.688Z,98812.81
2022-08-25T23:12:25.373Z,98803.06
2022-08-25T23:14:53.305Z,98803.66
2022-08-25T23:17:23.160Z,98803.41
2022-08-25T23:19:51.119Z,98808.34
2022-08-25T23:22:18.229Z,98810.41
2022-08-25T23:24:48.200Z,98798.47
2022-08-25T23:27:18.175Z,98801.59
2022-08-25T23:29:48.774Z,98798.94
2022-08-25T23:32:17.709Z,98789.84
2022-08-25T23:34:48.100Z,98793.78
2022-08-25T23:37:18.720Z,98796.34
2022-08-25T23:39:49.844Z,98797.88
2022-08-25T23:42:19.430Z,98789.06
2022-08-25T23:44:47.843Z,98788.59
2022-08-25T23:47:15.741Z,98787.78
2022-08-25T23:49:43.639Z,98790.06
2022-08-25T23:52:17.092Z,98780.13
2022-08-25T23:54:45.441Z,98780.97
2022-08-25T23:57:13.314Z,98797.78
2022-08-25T23:59:43.188Z,98795.34
